x

Cape Elizabeth- 45nm Nw Of Aberdeen, Wa (46041) Wave Buoy

12:50 - Tue 23rd May 2017 All times are PDT. -7 hours from GMT.

  • Sig Wave height 5.9ft
  • Swell Direction
  • Peak Period 11s
  • Average Period 6s
  • Wind
    18mph, 20mph gusts
  • Sea Temp 56°f
  • Air Temp 56°f
  • Sea Pressure 1018.5mb
  • Cape Elizabeth- 45nm Nw Of Aberdeen, Wa
  • Cape Elizabeth- 45nm Nw Of Aberdeen, Wa

More Historic Weather Station data

Upgrade to MSW Pro to gain access to the past 30 days of data for over 8000 Wavebouys and Weather Stations around the globe.

Join Pro

Comparision Forecast

View Surf forecast
   
mar. 05/23 12:50 6ft 11s 6s 18 20 mph 1018.5mb 56f 56f
lun. 05/22 11:50 6ft 10s 6s 20 25 mph 1018.2mb 56f 56f
10:50 6ft 9s 6s 20 25 mph 1018.3mb 56f 56f
9:50 6ft 10s 6s 18 20 mph 1018mb 56f 56f
8:50 6ft 10s 5s 18 22 mph 1017.9mb 56f 56f
7:50 6ft 10s 6s 22 27 mph 1017.9mb 56f 57f
6:50 5ft 10s 5s 20 25 mph 1018.4mb 57f 57f
5:50 5.5ft 9s 6s 20 25 mph 1018.9mb 58f 58f
4:50 5ft 10s 6s 20 22 mph 1019.3mb 58f 57f
3:50 5.5ft 10s 7s 16 20 mph 1019.9mb 58f 58f
2:50 5ft 11s 7s 16 18 mph 1020.1mb 58f 58f
1:50 5ft 11s 7s 16 18 mph 1020.2mb 58f 57f
12:50 4.5ft 10s 7s 9 13 mph 1020.4mb 58f 57f
11:50 5ft 10s 7s 4 7 mph 1020.4mb 58f 58f
10:50 4.5ft 10s 7s 4 4 mph 1020.6mb 56f 56f
9:50 4.5ft 10s 6s 7 9 mph 1021.1mb 56f 56f
8:50 4.5ft 10s 6s 9 11 mph 1021.3mb 56f 55f
7:50 5ft 9s 7s 16 18 mph 1021.4mb 56f 55f
5:50 4ft 10s 6s 9 11 mph 1021.1mb 56f 55f
4:50 4.5ft 11s 6s 11 13 mph 1021.1mb 56f 55f
3:50 4.5ft 10s 6s 13 16 mph 1021.5mb 56f 55f
2:50 4ft 10s 6s 13 16 mph 1021.6mb 56f 55f
1:50 4.5ft 10s 6s 13 16 mph 1021.6mb 56f 55f
12:50 4.5ft 11s 5s 13 16 mph 1021.7mb 56f 55f
dim. 05/21 11:50 4ft 11s 5s 18 22 mph 1021.7mb 56f 55f
10:50 4.5ft 11s 4s 18 20 mph 1021.7mb 56f 55f
9:50 4ft 5s 4s 20 22 mph 1021.4mb 56f 53f
8:50 3.5ft 11s 4s 18 20 mph 1021.4mb 57f 55f
7:50 3.5ft 4s 4s 18 20 mph 1021.5mb 56f 56f
6:50 3.5ft 9s 5s 18 20 mph 1021.6mb 56f 54f
5:50 3.5ft 9s 5s 16 20 mph 1022.2mb 56f 53f
4:50 3.5ft 10s 5s 18 20 mph 1023.1mb 56f 53f
3:50 3ft 9s 5s 16 20 mph 1023.5mb 56f 53f
2:50 3.5ft 8s 5s 13 18 mph 1024mb 57f 53f
1:50 3.5ft 9s 5s 13 16 mph 1024.4mb 57f 53f
12:50 3.5ft 8s 5s 13 16 mph 1024.6mb 57f 53f
11:50 3.5ft 11s 5s 13 16 mph 1024.5mb 57f 52f
10:50 4ft 11s 5s 11 13 mph 1024.5mb 56f 52f
9:50 3.5ft 10s 5s 13 16 mph 1024.7mb 56f 51f
8:50 3.5ft 11s 5s 16 18 mph 1024.5mb 56f 52f
7:50 4.5ft 10s 5s 16 18 mph 1024.3mb 56f 51f
6:50 4.5ft 10s  -  16 18 mph 1024.1mb 56f 51f
5:50 4.5ft 9s 6s 16 18 mph 1024.1mb 56f 51f
4:50 5ft 10s 6s 16 20 mph 1024.2mb 56f 51f
3:50 4.5ft 10s 6s 16 18 mph 1024.1mb 56f 51f
2:50 4.5ft 9s 5s 16 20 mph 1024.3mb 56f 51f
1:50 4.5ft 10s 6s 16 20 mph 1024.4mb 56f 52f
12:50 4.5ft 11s 6s 16 20 mph 1024.2mb 56f 52f
sam. 05/20 11:50 4.5ft 11s 5s 16 20 mph 1023.9mb 56f 52f
10:50 4.5ft 11s 5s 18 22 mph 1023.8mb 56f 52f
9:50 4.5ft 11s 6s 20 25 mph 1023.6mb 57f 51f
8:50 4ft 11s 5s 18 22 mph 1023.2mb 57f 52f
7:50 4ft 11s 5s 16 22 mph 1023.2mb 57f 52f
6:50 4.5ft 11s 6s 18 20 mph 1023.3mb 57f 52f
5:50 4.5ft 11s 6s 16 18 mph 1023.6mb 57f 52f
4:50 4ft 11s 6s 16 18 mph 1024mb 57f 51f
3:50 4.5ft 11s 7s 13 16 mph 1024.3mb 57f 52f
2:50 4ft 12s 6s 11 13 mph 1024.6mb 57f 52f
1:50 4ft 12s 7s 11 16 mph 1024.5mb 57f 53f
12:50 4.5ft 12s 7s 11 13 mph 1023.8mb 57f 53f
11:50 4ft 9s 6s 9 13 mph 1023.8mb 56f 53f
10:50 4ft 11s 6s 11 13 mph 1023.1mb 56f 54f
9:50 4.5ft 11s 7s 9 11 mph 1023mb 56f 53f
8:50 4ft 11s 6s 9 11 mph 1022.7mb 56f 53f
7:50 4.5ft 12s 6s 11 13 mph 1022.6mb 55f 53f
6:50 4ft 12s 7s 13 16 mph 1022mb 54f 53f
5:50 4ft 12s 6s 9 11 mph 1021.6mb 54f 53f
4:50 3.5ft 12s 6s 9 9 mph 1021.3mb 55f 53f
3:50 3.5ft 13s 7s 11 13 mph 1021.2mb 56f 53f
2:50 3.5ft 9s 7s 11 13 mph 1021.1mb 56f 53f
1:50 4ft 9s 7s 9 11 mph 1021mb 56f 53f
12:50 4ft 9s 7s 7 9 mph 1020.8mb 56f 53f
ven. 05/19 11:50 3.5ft 9s 7s 11 13 mph 1020.8mb 56f 53f
10:50 3.5ft 8s 7s 7 9 mph 1020.8mb 56f 53f
9:50 3.5ft 8s 7s 9 11 mph 1020.6mb 56f 54f
8:50 3.5ft 8s 7s 9 11 mph 1020.3mb 56f 54f
7:50 3.5ft 8s 7s 9 9 mph 1020.4mb 56f 54f
6:50 3.5ft 8s 7s 7 9 mph 1020.6mb 56f 54f
5:50 3.5ft 8s 7s 9 11 mph 1020.8mb 56f 55f
4:50 3.5ft 8s 7s 7 9 mph 1020.8mb 56f 55f
3:50 3.5ft 8s 7s 9 11 mph 1021mb 57f 55f
2:50 3ft 9s 7s 9 9 mph 1021.2mb 59f 55f
1:50 3.5ft 9s 7s 4 7 mph 1021.3mb 61f 55f
12:50 2.5ft 9s 7s 2 4 mph 1021.2mb 60f 54f
11:50 2.5ft 9s 7s 2 4 mph 1021.2mb 57f 54f
10:50 2.5ft 9s 7s  -  2 mph 1021.3mb 56f 54f
9:50 2.5ft 9s 7s 4 4 mph 1020.9mb 55f 53f